createdAt,value
2019-02-12T00:00:00.253Z,2.70
2019-02-12T00:02:31.538Z,2.65
2019-02-12T00:05:03.168Z,2.55
2019-02-12T00:07:35.057Z,2.37
2019-02-12T00:10:07.287Z,2.60
2019-02-12T00:12:38.463Z,2.90
2019-02-12T00:15:09.571Z,2.77
2019-02-12T00:17:41.502Z,2.52
2019-02-12T00:20:13.271Z,2.80
2019-02-12T00:22:44.388Z,2.50
2019-02-12T00:25:15.585Z,2.37
2019-02-12T00:27:46.771Z,2.35
2019-02-12T00:30:17.908Z,2.58
2019-02-12T00:32:49.217Z,2.62
2019-02-12T00:35:20.300Z,2.33
2019-02-12T00:37:51.569Z,2.37
2019-02-12T00:40:22.675Z,2.20
2019-02-12T00:42:53.848Z,2.30
2019-02-12T00:45:25.035Z,2.45
2019-02-12T00:47:56.295Z,2.45
2019-02-12T00:50:27.584Z,2.25
2019-02-12T00:52:58.834Z,2.47
2019-02-12T00:55:30.075Z,2.30
2019-02-12T00:58:01.281Z,2.30
2019-02-12T01:00:32.449Z,2.42
2019-02-12T01:03:03.620Z,2.30
2019-02-12T01:05:34.923Z,2.12
2019-02-12T01:08:05.879Z,2.40
2019-02-12T01:10:37.120Z,2.20
2019-02-12T01:13:08.050Z,2.33
2019-02-12T01:15:39.127Z,2.40
2019-02-12T01:18:09.975Z,2.25
2019-02-12T01:20:41.217Z,2.10
2019-02-12T01:23:12.507Z,2.25
2019-02-12T01:25:43.647Z,2.58
2019-02-12T01:28:14.675Z,2.20
2019-02-12T01:30:45.958Z,2.10
2019-02-12T01:33:17.299Z,2.20
2019-02-12T01:35:48.360Z,2.40
2019-02-12T01:38:19.449Z,2.17
2019-02-12T01:40:50.613Z,1.85
2019-02-12T01:43:21.863Z,2.10
2019-02-12T01:45:53.179Z,2.30
2019-02-12T01:48:24.370Z,2.27
2019-02-12T01:50:55.597Z,2.27
2019-02-12T01:53:26.640Z,1.98
2019-02-12T01:55:57.847Z,1.72
2019-02-12T01:58:29.114Z,2.12
2019-02-12T02:01:00.159Z,2.30
2019-02-12T02:03:31.291Z,2.00
2019-02-12T02:06:02.483Z,2.00
2019-02-12T02:08:33.814Z,2.27
2019-02-12T02:11:05.097Z,1.92
2019-02-12T02:13:36.013Z,2.00
2019-02-12T02:16:07.138Z,2.20
2019-02-12T02:18:38.448Z,2.33
2019-02-12T02:21:09.736Z,2.02
2019-02-12T02:23:40.933Z,2.00
2019-02-12T02:26:12.114Z,2.00
2019-02-12T02:28:43.346Z,2.08
2019-02-12T02:31:14.425Z,1.92
2019-02-12T02:33:45.537Z,1.92
2019-02-12T02:36:16.793Z,2.05
2019-02-12T02:38:49.910Z,2.20
2019-02-12T02:41:21.057Z,2.00
2019-02-12T02:43:52.275Z,1.90
2019-02-12T02:46:23.435Z,1.75
2019-02-12T02:48:54.986Z,1.70
2019-02-12T02:51:26.246Z,2.10
2019-02-12T02:53:57.460Z,1.90
2019-02-12T02:56:28.571Z,1.90
2019-02-12T02:58:59.543Z,1.80
2019-02-12T03:01:30.737Z,1.98
2019-02-12T03:04:02.066Z,1.57
2019-02-12T03:06:33.307Z,1.95
2019-02-12T03:09:06.218Z,1.80
2019-02-12T03:11:37.483Z,1.67
2019-02-12T03:14:08.700Z,2.02
2019-02-12T03:16:39.923Z,1.90
2019-02-12T03:19:10.945Z,1.70
2019-02-12T03:21:42.039Z,1.40
2019-02-12T03:24:13.180Z,1.50
2019-02-12T03:26:44.334Z,1.80
2019-02-12T03:29:15.375Z,1.90
2019-02-12T03:31:46.498Z,1.60
2019-02-12T03:34:17.636Z,1.75
2019-02-12T03:36:48.683Z,1.50
2019-02-12T03:39:19.845Z,1.72
2019-02-12T03:41:51.111Z,1.70
2019-02-12T03:44:22.405Z,1.67
2019-02-12T03:46:53.658Z,1.70
2019-02-12T03:49:24.809Z,1.50
2019-02-12T03:51:55.837Z,1.55
2019-02-12T03:54:26.921Z,1.65
2019-02-12T03:56:58.076Z,1.70
2019-02-12T03:59:29.201Z,1.70
2019-02-12T04:02:00.439Z,1.57
2019-02-12T04:04:31.582Z,1.50
2019-02-12T04:07:02.791Z,1.60
2019-02-12T04:09:33.875Z,1.70
2019-02-12T04:12:05.135Z,1.52
2019-02-12T04:14:36.527Z,1.57
2019-02-12T04:17:07.540Z,1.42
2019-02-12T04:19:38.686Z,1.72
2019-02-12T04:22:09.900Z,1.52
2019-02-12T04:24:41.150Z,1.30
2019-02-12T04:27:13.068Z,1.47
2019-02-12T04:29:44.227Z,1.40
2019-02-12T04:32:15.531Z,1.50
2019-02-12T04:34:46.560Z,1.30
2019-02-12T04:37:17.798Z,1.55
2019-02-12T04:39:49.064Z,1.20
2019-02-12T04:42:20.425Z,1.30
2019-02-12T04:44:51.676Z,1.35
2019-02-12T04:47:22.715Z,1.50
2019-02-12T04:49:53.938Z,1.62
2019-02-12T04:52:43.440Z,1.27
2019-02-12T04:55:15.674Z,1.45
2019-02-12T04:57:47.579Z,1.57
2019-02-12T05:00:18.044Z,1.30
2019-02-12T05:02:48.415Z,1.40
2019-02-12T05:05:18.942Z,1.62
2019-02-12T05:07:50.880Z,1.37
2019-02-12T05:10:22.315Z,1.50
2019-02-12T05:12:52.676Z,1.40
2019-02-12T05:15:23.151Z,1.30
2019-02-12T05:17:53.559Z,1.40
2019-02-12T05:20:25.010Z,1.30
2019-02-12T05:22:56.734Z,1.20
2019-02-12T05:25:28.763Z,1.12
2019-02-12T05:28:00.316Z,1.40
2019-02-12T05:30:31.858Z,1.37
2019-02-12T05:33:04.176Z,1.10
2019-02-12T05:35:34.530Z,1.17
2019-02-12T05:38:06.762Z,1.25
2019-02-12T05:40:38.044Z,1.37
2019-02-12T05:43:08.484Z,1.20
2019-02-12T05:45:39.034Z,1.37
2019-02-12T05:48:09.389Z,1.10
2019-02-12T05:50:39.837Z,1.10
2019-02-12T05:53:10.385Z,1.30
2019-02-12T05:55:43.817Z,1.30
2019-02-12T05:58:14.136Z,1.30
2019-02-12T06:00:44.529Z,1.30
2019-02-12T06:03:15.079Z,1.20
2019-02-12T06:05:45.755Z,1.20
2019-02-12T06:08:16.163Z,1.30
2019-02-12T06:10:46.611Z,1.17
2019-02-12T06:13:28.478Z,1.30
2019-02-12T06:15:58.969Z,1.37
2019-02-12T06:18:30.718Z,1.50
2019-02-12T06:21:01.201Z,1.10
2019-02-12T06:23:31.603Z,1.20
2019-02-12T06:26:03.225Z,1.40
2019-02-12T06:28:35.457Z,1.35
2019-02-12T06:31:05.813Z,3.02
2019-02-12T06:33:38.083Z,2.80
2019-02-12T06:36:08.418Z,2.37
2019-02-12T06:38:41.997Z,2.20
2019-02-12T06:41:12.441Z,2.52
2019-02-12T06:43:42.851Z,2.10
2019-02-12T06:46:13.306Z,1.95
2019-02-12T06:48:43.832Z,1.90
2019-02-12T06:51:14.421Z,1.90
2019-02-12T06:53:44.869Z,2.42
2019-02-12T06:56:16.992Z,2.22
2019-02-12T06:58:47.438Z,2.02
2019-02-12T07:01:20.379Z,2.30
2019-02-12T07:04:03.538Z,3.45
2019-02-12T07:07:32.750Z,2.92
2019-02-12T07:10:14.537Z,2.92
2019-02-12T07:13:27.200Z,2.90
2019-02-12T07:17:12.757Z,2.62
2019-02-12T07:20:27.952Z,2.72
2019-02-12T07:23:38.476Z,2.20
2019-02-12T07:27:08.421Z,1.87
2019-02-12T07:30:35.028Z,1.80
2019-02-12T07:33:48.617Z,1.80
2019-02-12T07:37:00.332Z,1.72
2019-02-12T07:39:59.946Z,1.52
2019-02-12T07:43:20.037Z,1.70
2019-02-12T07:46:42.346Z,1.65
2019-02-12T07:50:20.337Z,1.60
2019-02-12T07:53:11.068Z,1.92
2019-02-12T07:56:24.619Z,1.60
2019-02-12T07:59:46.482Z,2.00
2019-02-12T08:03:08.275Z,1.45
2019-02-12T08:06:19.695Z,2.02
2019-02-12T08:10:02.694Z,1.30
2019-02-12T08:13:34.258Z,1.30
2019-02-12T08:16:30.504Z,1.75
2019-02-12T08:19:40.018Z,1.50
2019-02-12T08:23:16.161Z,1.40
2019-02-12T08:26:31.675Z,1.32
2019-02-12T08:29:56.400Z,1.65
2019-02-12T08:33:39.560Z,1.30
2019-02-12T08:37:10.109Z,1.22
2019-02-12T08:40:29.404Z,1.50
2019-02-12T08:43:42.612Z,1.20
2019-02-12T08:46:58.326Z,1.30
2019-02-12T08:49:57.849Z,1.42
2019-02-12T08:53:21.652Z,1.37
2019-02-12T08:56:44.655Z,1.20
2019-02-12T09:00:12.536Z,1.20
2019-02-12T09:03:48.498Z,1.27
2019-02-12T09:06:59.094Z,1.10
2019-02-12T09:10:21.469Z,1.30
2019-02-12T09:13:40.806Z,1.40
2019-02-12T09:17:06.424Z,1.35
2019-02-12T09:20:18.876Z,1.20
2019-02-12T09:24:00.351Z,1.32
2019-02-12T09:27:07.206Z,1.30
2019-02-12T09:30:35.300Z,1.12
2019-02-12T09:34:00.930Z,1.20
2019-02-12T09:37:37.426Z,1.20
2019-02-12T09:40:45.573Z,1.47
2019-02-12T09:44:07.578Z,1.20
2019-02-12T09:47:54.567Z,1.25
2019-02-12T09:51:07.728Z,1.17
2019-02-12T09:54:28.717Z,1.10
2019-02-12T09:57:56.927Z,1.17
2019-02-12T10:00:51.705Z,1.30
2019-02-12T10:04:10.381Z,1.00
2019-02-12T10:07:57.208Z,1.32
2019-02-12T10:11:19.452Z,1.20
2019-02-12T10:14:56.815Z,1.17
2019-02-12T10:18:11.580Z,1.07
2019-02-12T10:21:42.320Z,0.98
2019-02-12T10:24:54.718Z,0.93
2019-02-12T10:28:18.121Z,0.90
2019-02-12T10:31:34.307Z,1.10
2019-02-12T10:34:05.340Z,1.00
2019-02-12T10:36:36.588Z,1.10
2019-02-12T10:39:10.380Z,1.32
2019-02-12T10:41:41.458Z,0.90
2019-02-12T10:44:12.693Z,1.12
2019-02-12T10:46:43.886Z,1.10
2019-02-12T10:49:15.391Z,1.00
2019-02-12T10:51:46.515Z,1.00
2019-02-12T10:54:17.729Z,1.00
2019-02-12T10:56:48.899Z,1.12
2019-02-12T10:59:20.003Z,1.05
2019-02-12T11:01:51.108Z,0.93
2019-02-12T11:04:22.050Z,1.02
2019-02-12T11:06:53.139Z,1.07
2019-02-12T11:09:23.939Z,1.00
2019-02-12T11:11:55.008Z,1.10
2019-02-12T11:14:26.119Z,1.10
2019-02-12T11:16:57.395Z,1.00
2019-02-12T11:19:28.542Z,0.95
2019-02-12T11:21:59.590Z,0.90
2019-02-12T11:24:35.438Z,1.00
2019-02-12T11:27:03.572Z,0.78
2019-02-12T11:29:34.839Z,1.10
2019-02-12T11:32:05.919Z,1.10
2019-02-12T11:34:36.954Z,1.00
2019-02-12T11:37:08.353Z,0.98
2019-02-12T11:39:39.324Z,0.80
2019-02-12T11:42:10.390Z,1.10
2019-02-12T11:44:41.505Z,0.80
2019-02-12T11:47:12.421Z,1.00
2019-02-12T11:49:43.675Z,0.98
2019-02-12T11:52:14.982Z,1.07
2019-02-12T11:54:46.221Z,1.00
2019-02-12T11:57:17.315Z,0.90
2019-02-12T11:59:48.255Z,0.90
2019-02-12T12:02:20.981Z,0.80
2019-02-12T12:04:52.258Z,0.85
2019-02-12T12:07:23.453Z,1.00
2019-02-12T12:09:54.418Z,0.80
2019-02-12T12:12:25.346Z,0.90
2019-02-12T12:14:56.495Z,1.00
2019-02-12T12:17:27.728Z,1.00
2019-02-12T12:19:58.957Z,1.00
2019-02-12T12:22:30.085Z,0.90
2019-02-12T12:25:01.369Z,0.70
2019-02-12T12:27:32.459Z,0.90
2019-02-12T12:30:03.634Z,0.80
2019-02-12T12:32:34.794Z,0.88
2019-02-12T12:35:05.950Z,0.82
2019-02-12T12:37:37.170Z,0.88
2019-02-12T12:40:08.522Z,0.90
2019-02-12T12:42:39.768Z,0.90
2019-02-12T12:45:11.473Z,0.80
2019-02-12T12:47:42.612Z,0.80
2019-02-12T12:50:13.821Z,1.02
2019-02-12T12:52:44.879Z,1.00
2019-02-12T12:55:16.324Z,1.10
2019-02-12T12:57:47.727Z,1.17
2019-02-12T13:00:18.914Z,1.22
2019-02-12T13:02:49.990Z,1.05
2019-02-12T13:05:21.158Z,1.20
2019-02-12T13:07:52.192Z,1.00
2019-02-12T13:10:23.222Z,1.22
2019-02-12T13:12:54.787Z,1.00
2019-02-12T13:15:25.867Z,1.00
2019-02-12T13:17:57.038Z,0.90
2019-02-12T13:20:28.185Z,0.88
2019-02-12T13:22:59.132Z,1.20
2019-02-12T13:25:30.286Z,1.10
2019-02-12T13:28:01.455Z,1.00
2019-02-12T13:30:32.610Z,1.00
2019-02-12T13:33:03.620Z,1.55
2019-02-12T13:35:34.803Z,1.10
2019-02-12T13:38:05.904Z,1.10
2019-02-12T13:40:36.837Z,1.17
2019-02-12T13:43:08.125Z,1.22
2019-02-12T13:45:39.123Z,1.20
2019-02-12T13:48:10.148Z,1.20
2019-02-12T13:50:41.421Z,1.20
2019-02-12T13:53:12.378Z,1.32
2019-02-12T13:55:43.564Z,1.15
2019-02-12T13:58:14.839Z,1.50
2019-02-12T14:00:46.276Z,1.35
2019-02-12T14:03:22.534Z,1.37
2019-02-12T14:05:50.858Z,1.40
2019-02-12T14:08:23.542Z,1.25
2019-02-12T14:10:54.732Z,1.55
2019-02-12T14:13:25.836Z,1.70
2019-02-12T14:15:56.840Z,3.15
2019-02-12T14:18:28.019Z,2.92
2019-02-12T14:20:59.040Z,4.72
2019-02-12T14:23:30.576Z,44.80
2019-02-12T14:26:01.782Z,47.60
2019-02-12T14:28:33.039Z,72.85
2019-02-12T14:31:04.217Z,84.67
2019-02-12T14:33:35.782Z,72.62
2019-02-12T14:36:06.758Z,62.30
2019-02-12T14:38:37.944Z,52.23
2019-02-12T14:41:08.807Z,109.42
2019-02-12T14:43:39.811Z,149.90
2019-02-12T14:46:10.775Z,89.37
2019-02-12T14:48:41.854Z,79.72
2019-02-12T14:51:12.877Z,77.47
2019-02-12T14:53:43.872Z,63.25
2019-02-12T14:56:14.629Z,54.63
2019-02-12T14:58:45.776Z,43.50
2019-02-12T15:01:17.142Z,32.73
2019-02-12T15:03:48.491Z,30.32
2019-02-12T15:06:20.624Z,27.27
2019-02-12T15:08:53.442Z,25.37
2019-02-12T15:11:24.646Z,25.17
2019-02-12T15:13:57.161Z,23.12
2019-02-12T15:16:29.215Z,23.70
2019-02-12T15:19:00.870Z,26.33
2019-02-12T15:21:32.639Z,29.92
2019-02-12T15:24:03.703Z,30.45
2019-02-12T15:26:35.208Z,28.83
2019-02-12T15:29:08.504Z,28.80
2019-02-12T15:31:40.882Z,25.55
2019-02-12T15:34:12.160Z,23.98
2019-02-12T15:36:43.444Z,22.20
2019-02-12T15:39:14.717Z,20.43
2019-02-12T15:41:48.556Z,19.85
2019-02-12T15:44:20.070Z,20.12
2019-02-12T15:46:51.349Z,20.75
2019-02-12T15:49:23.125Z,20.70
2019-02-12T15:51:54.730Z,20.40
2019-02-12T15:54:26.267Z,19.07
2019-02-12T15:56:57.676Z,19.02
2019-02-12T15:59:29.475Z,18.45
2019-02-12T16:02:20.751Z,17.85
2019-02-12T16:04:52.834Z,17.75
2019-02-12T16:07:25.228Z,17.95
2019-02-12T16:09:57.601Z,17.20
2019-02-12T16:12:28.462Z,16.55
2019-02-12T16:15:00.872Z,16.23
2019-02-12T16:17:31.474Z,16.05
2019-02-12T16:20:01.813Z,15.98
2019-02-12T16:22:33.226Z,16.32
2019-02-12T16:25:03.699Z,15.58
2019-02-12T16:27:36.960Z,15.18
2019-02-12T16:30:10.898Z,14.83
2019-02-12T16:32:43.202Z,14.83
2019-02-12T16:35:15.288Z,15.93
2019-02-12T16:37:47.522Z,14.10
2019-02-12T16:40:17.870Z,14.20
2019-02-12T16:42:50.249Z,13.20
2019-02-12T16:45:28.908Z,13.05
2019-02-12T16:48:00.218Z,13.88
2019-02-12T16:50:30.709Z,12.20
2019-02-12T16:53:02.659Z,12.47
2019-02-12T16:55:35.114Z,12.60
2019-02-12T16:58:08.946Z,13.40
2019-02-12T17:00:40.517Z,13.05
2019-02-12T17:03:11.309Z,13.10
2019-02-12T17:05:41.932Z,12.47
2019-02-12T17:08:12.461Z,12.73
2019-02-12T17:10:43.079Z,12.60
2019-02-12T17:13:16.209Z,11.95
2019-02-12T17:15:47.750Z,12.15
2019-02-12T17:18:18.281Z,11.20
2019-02-12T17:20:48.720Z,11.00
2019-02-12T17:23:19.428Z,11.63
2019-02-12T17:25:53.372Z,11.20
2019-02-12T17:28:25.282Z,11.25
2019-02-12T17:30:56.988Z,10.90
2019-02-12T17:33:27.398Z,10.80
2019-02-12T17:35:57.835Z,11.05
2019-02-12T17:38:28.427Z,10.85
2019-02-12T17:40:59.766Z,10.50
2019-02-12T17:43:30.259Z,10.50
2019-02-12T17:46:02.812Z,9.88
2019-02-12T17:48:33.298Z,10.20
2019-02-12T17:51:03.620Z,10.05
2019-02-12T17:53:34.107Z,9.10
2019-02-12T17:56:06.280Z,10.00
2019-02-12T17:58:41.561Z,10.23
2019-02-12T18:01:11.964Z,9.88
2019-02-12T18:03:42.329Z,9.73
2019-02-12T18:06:12.825Z,9.28
2019-02-12T18:08:43.273Z,9.78
2019-02-12T18:11:14.621Z,9.75
2019-02-12T18:13:45.063Z,9.55
2019-02-12T18:16:17.305Z,9.10
2019-02-12T18:18:47.817Z,9.20
2019-02-12T18:21:18.373Z,8.83
2019-02-12T18:23:48.726Z,8.90
2019-02-12T18:26:20.169Z,8.25
2019-02-12T18:28:52.338Z,8.30
2019-02-12T18:31:24.307Z,8.08
2019-02-12T18:33:54.650Z,8.63
2019-02-12T18:36:26.124Z,8.30
2019-02-12T18:38:57.795Z,8.20
2019-02-12T18:41:28.449Z,7.95
2019-02-12T18:43:58.806Z,7.95
2019-02-12T18:46:30.994Z,8.40
2019-02-12T18:49:01.392Z,8.35
2019-02-12T18:51:32.018Z,7.55
2019-02-12T18:54:02.399Z,7.40
2019-02-12T18:56:32.781Z,7.80
2019-02-12T18:59:07.535Z,7.78
2019-02-12T19:01:38.040Z,7.92
2019-02-12T19:04:10.211Z,7.25
2019-02-12T19:06:42.033Z,7.50
2019-02-12T19:09:14.505Z,8.15
2019-02-12T19:11:54.001Z,7.90
2019-02-12T19:14:18.054Z,8.00
2019-02-12T19:16:48.580Z,7.65
2019-02-12T19:19:19.607Z,7.30
2019-02-12T19:21:50.259Z,7.47
2019-02-12T19:24:20.679Z,7.53
2019-02-12T19:26:54.362Z,7.42
2019-02-12T19:29:24.986Z,7.72
2019-02-12T19:31:59.354Z,7.35
2019-02-12T19:34:27.790Z,7.72
2019-02-12T19:37:00.025Z,7.60
2019-02-12T19:39:30.416Z,12.93
2019-02-12T19:42:02.876Z,9.98
2019-02-12T19:44:34.365Z,9.20
2019-02-12T19:47:08.731Z,7.67
2019-02-12T19:49:40.911Z,7.47
2019-02-12T19:52:11.308Z,6.95
2019-02-12T19:54:42.798Z,6.55
2019-02-12T19:57:13.378Z,7.05
2019-02-12T19:59:43.863Z,6.90
2019-02-12T20:02:14.280Z,6.65
2019-02-12T20:04:45.342Z,6.70
2019-02-12T20:07:18.293Z,6.55
2019-02-12T20:09:49.858Z,6.55
2019-02-12T20:12:21.831Z,6.33
2019-02-12T20:14:54.216Z,7.03
2019-02-12T20:17:24.776Z,6.67
2019-02-12T20:19:55.188Z,6.58
2019-02-12T20:22:25.663Z,6.15
2019-02-12T20:24:56.099Z,6.72
2019-02-12T20:27:26.634Z,6.03
2019-02-12T20:29:58.105Z,6.20
2019-02-12T20:32:28.476Z,6.17
2019-02-12T20:34:58.814Z,5.95
2019-02-12T20:37:30.397Z,5.40
2019-02-12T20:40:00.822Z,5.90
2019-02-12T20:42:32.517Z,5.47
2019-02-12T20:45:04.716Z,5.75
2019-02-12T20:47:35.146Z,6.12
2019-02-12T20:50:07.861Z,5.40
2019-02-12T20:52:38.232Z,5.97
2019-02-12T20:55:09.547Z,4.92
2019-02-12T20:57:39.925Z,5.53
2019-02-12T21:00:16.594Z,5.80
2019-02-12T21:02:47.146Z,6.65
2019-02-12T21:05:20.358Z,6.37
2019-02-12T21:07:52.436Z,6.17
2019-02-12T21:10:22.825Z,6.28
2019-02-12T21:12:53.166Z,6.42
2019-02-12T21:15:23.733Z,5.97
2019-02-12T21:17:55.203Z,6.22
2019-02-12T21:20:25.637Z,6.62
2019-02-12T21:22:57.219Z,6.20
2019-02-12T21:25:30.351Z,5.62
2019-02-12T21:28:00.922Z,5.72
2019-02-12T21:30:32.457Z,5.15
2019-02-12T21:33:04.567Z,5.35
2019-02-12T21:35:35.114Z,5.60
2019-02-12T21:38:07.210Z,5.55
2019-02-12T21:40:39.409Z,6.28
2019-02-12T21:43:12.486Z,5.72
2019-02-12T21:45:44.743Z,5.67
2019-02-12T21:48:17.057Z,4.72
2019-02-12T21:50:50.035Z,4.87
2019-02-12T21:53:21.288Z,4.47
2019-02-12T21:55:51.884Z,4.42
2019-02-12T21:58:22.416Z,4.70
2019-02-12T22:00:55.226Z,4.62
2019-02-12T22:03:26.789Z,4.80
2019-02-12T22:05:57.609Z,4.20
2019-02-12T22:08:28.106Z,4.05
2019-02-12T22:11:00.265Z,4.40
2019-02-12T22:13:31.253Z,4.22
2019-02-12T22:16:01.678Z,4.15
2019-02-12T22:18:32.040Z,3.92
2019-02-12T22:21:05.760Z,4.12
2019-02-12T22:23:36.505Z,4.28
2019-02-12T22:26:08.757Z,4.17
2019-02-12T22:28:40.676Z,4.12
2019-02-12T22:31:14.382Z,4.05
2019-02-12T22:33:44.694Z,4.53
2019-02-12T22:36:18.674Z,4.00
2019-02-12T22:38:49.227Z,4.25
2019-02-12T22:41:20.655Z,3.92
2019-02-12T22:43:52.879Z,3.40
2019-02-12T22:46:25.693Z,4.05
2019-02-12T22:48:57.275Z,4.20
2019-02-12T22:51:30.248Z,3.60
2019-02-12T22:54:00.592Z,3.90
2019-02-12T22:56:30.947Z,4.47
2019-02-12T22:59:04.390Z,3.98
2019-02-12T23:01:39.080Z,4.17
2019-02-12T23:04:10.774Z,4.12
2019-02-12T23:06:41.109Z,3.98
2019-02-12T23:09:17.881Z,4.62
2019-02-12T23:11:51.589Z,3.92
2019-02-12T23:14:22.213Z,5.00
2019-02-12T23:16:53.721Z,5.95
2019-02-12T23:19:27.266Z,5.35
2019-02-12T23:21:58.841Z,4.90
2019-02-12T23:24:29.234Z,4.50
2019-02-12T23:27:00.592Z,4.97
2019-02-12T23:29:32.826Z,4.90
2019-02-12T23:32:05.830Z,4.65
2019-02-12T23:34:36.358Z,4.25
2019-02-12T23:37:07.956Z,4.30
2019-02-12T23:39:38.301Z,4.15
2019-02-12T23:42:12.007Z,3.85
2019-02-12T23:44:42.490Z,3.67
2019-02-12T23:47:15.705Z,3.80
2019-02-12T23:49:46.439Z,3.37
2019-02-12T23:52:18.590Z,3.98
2019-02-12T23:54:51.579Z,3.12
2019-02-12T23:57:22.171Z,3.20
2019-02-12T23:59:55.477Z,3.12
